createdAt,value
2022-09-11T00:00:02.996Z,2.50
2022-09-11T00:05:14.582Z,1.90
2022-09-11T00:10:16.535Z,2.10
2022-09-11T00:15:18.280Z,2.13
2022-09-11T00:20:19.941Z,2.03
2022-09-11T00:25:21.580Z,2.50
2022-09-11T00:30:23.256Z,2.10
2022-09-11T00:35:25.902Z,2.45
2022-09-11T00:40:27.587Z,2.60
2022-09-11T00:45:29.291Z,1.85
2022-09-11T00:50:32.742Z,2.50
2022-09-11T00:55:37.934Z,2.42
2022-09-11T01:00:43.286Z,2.42
2022-09-11T01:05:48.316Z,2.42
2022-09-11T01:11:20.468Z,2.53
2022-09-11T01:16:43.849Z,2.60
2022-09-11T01:21:52.659Z,2.58
2022-09-11T01:27:19.349Z,3.28
2022-09-11T01:32:27.860Z,2.53
2022-09-11T01:37:56.164Z,2.78
2022-09-11T01:43:06.246Z,3.30
2022-09-11T01:48:09.925Z,3.67
2022-09-11T01:53:14.657Z,3.58
2022-09-11T01:58:24.829Z,3.35
2022-09-11T02:03:29.976Z,3.40
2022-09-11T02:08:38.210Z,3.63
2022-09-11T02:13:50.041Z,3.45
2022-09-11T02:19:04.794Z,3.22
2022-09-11T02:24:06.943Z,3.72
2022-09-11T02:29:08.828Z,3.28
2022-09-11T02:34:14.567Z,3.45
2022-09-11T02:39:46.385Z,3.03
2022-09-11T02:45:07.481Z,3.67
2022-09-11T02:50:18.963Z,3.05
2022-09-11T02:55:39.895Z,3.70
2022-09-11T03:00:42.549Z,3.17
2022-09-11T03:05:44.466Z,3.28
2022-09-11T03:10:46.773Z,3.38
2022-09-11T03:15:48.679Z,4.05
2022-09-11T03:20:51.889Z,4.10
2022-09-11T03:25:55.596Z,3.22
2022-09-11T03:30:58.259Z,3.20
2022-09-11T03:36:01.233Z,3.50
2022-09-11T03:41:03.531Z,3.40
2022-09-11T03:46:06.833Z,3.78
2022-09-11T03:51:08.922Z,4.68
2022-09-11T03:56:12.104Z,4.18
2022-09-11T04:01:20.004Z,3.40
2022-09-11T04:06:23.600Z,3.63
2022-09-11T04:11:25.384Z,3.58
2022-09-11T04:16:27.110Z,4.20
2022-09-11T04:21:31.242Z,4.45
2022-09-11T04:26:34.200Z,4.00
2022-09-11T04:31:44.068Z,6.05
2022-09-11T04:36:48.624Z,5.72
2022-09-11T04:41:55.947Z,5.65
2022-09-11T04:46:57.811Z,6.28
2022-09-11T04:52:05.895Z,5.70
2022-09-11T04:57:09.201Z,6.75
2022-09-11T05:02:12.593Z,5.60
2022-09-11T05:07:17.661Z,5.55
2022-09-11T05:12:22.937Z,5.35
2022-09-11T05:17:24.534Z,5.88
2022-09-11T05:22:26.520Z,5.75
2022-09-11T05:27:31.727Z,4.97
2022-09-11T05:32:33.465Z,5.65
2022-09-11T05:37:36.807Z,6.07
2022-09-11T05:42:38.795Z,5.80
2022-09-11T05:47:40.449Z,5.45
2022-09-11T05:52:42.180Z,6.55
2022-09-11T05:57:43.878Z,6.97
2022-09-11T06:02:48.976Z,7.82
2022-09-11T06:07:52.263Z,6.78
2022-09-11T06:12:54.047Z,9.35
2022-09-11T06:17:56.188Z,10.48
2022-09-11T06:22:57.914Z,10.65
2022-09-11T06:28:01.639Z,11.73
2022-09-11T06:33:03.922Z,11.70
2022-09-11T06:38:05.732Z,11.27
2022-09-11T06:43:08.218Z,11.07
2022-09-11T06:48:09.923Z,10.65
2022-09-11T06:53:14.260Z,11.00
2022-09-11T06:58:23.156Z,10.25
2022-09-11T07:03:25.307Z,11.07
2022-09-11T07:08:28.914Z,10.70
2022-09-11T07:13:36.742Z,9.80
2022-09-11T07:18:42.444Z,9.55
2022-09-11T07:23:50.818Z,10.70
2022-09-11T07:28:54.748Z,11.10
2022-09-11T07:33:57.668Z,13.45
2022-09-11T07:39:01.378Z,13.70
2022-09-11T07:44:25.910Z,12.38
2022-09-11T07:49:28.292Z,11.40
2022-09-11T07:54:31.095Z,11.15
2022-09-11T07:59:33.380Z,7.35
2022-09-11T08:04:37.180Z,7.22
2022-09-11T08:09:39.949Z,6.22
2022-09-11T08:14:43.305Z,6.43
2022-09-11T08:19:52.058Z,6.05
2022-09-11T08:24:53.812Z,6.07
2022-09-11T08:29:55.838Z,5.70
2022-09-11T08:34:57.738Z,5.25
2022-09-11T08:39:59.983Z,6.57
2022-09-11T08:45:04.206Z,7.07
2022-09-11T08:50:16.559Z,6.95
2022-09-11T08:55:43.767Z,6.82
2022-09-11T09:00:58.496Z,7.15
2022-09-11T09:06:25.420Z,6.53
2022-09-11T09:11:59.426Z,7.63
2022-09-11T09:17:14.780Z,7.07
2022-09-11T09:22:27.440Z,12.20
2022-09-11T09:27:34.857Z,14.55
2022-09-11T09:32:43.921Z,13.10
2022-09-11T09:37:45.946Z,13.93
2022-09-11T09:42:53.507Z,16.10
2022-09-11T09:47:55.130Z,17.88
2022-09-11T09:53:03.972Z,18.83
2022-09-11T09:58:07.219Z,19.83
2022-09-11T10:03:23.307Z,22.25
2022-09-11T10:08:30.493Z,22.92
2022-09-11T10:13:34.961Z,23.67
2022-09-11T10:18:40.265Z,22.35
2022-09-11T10:24:02.932Z,21.77
2022-09-11T10:29:14.181Z,19.55
2022-09-11T10:34:20.300Z,18.55
2022-09-11T10:39:25.117Z,17.30
2022-09-11T10:44:28.729Z,15.88
2022-09-11T10:49:30.532Z,13.90
2022-09-11T10:54:58.543Z,14.35
2022-09-11T11:00:13.568Z,14.43
2022-09-11T11:05:32.431Z,12.35
2022-09-11T11:10:47.261Z,10.57
2022-09-11T11:16:17.761Z,10.20
2022-09-11T11:21:35.270Z,9.02
2022-09-11T11:26:51.117Z,11.75
2022-09-11T11:32:17.605Z,11.27
2022-09-11T11:37:24.722Z,11.65
2022-09-11T11:42:35.469Z,11.63
2022-09-11T11:47:45.852Z,10.68
2022-09-11T11:52:59.347Z,10.98
2022-09-11T11:58:12.687Z,11.45
2022-09-11T12:03:30.032Z,12.13
2022-09-11T12:08:31.730Z,12.00
2022-09-11T12:13:43.207Z,12.45
2022-09-11T12:19:19.792Z,13.55
2022-09-11T12:24:43.227Z,16.58
2022-09-11T12:29:56.803Z,14.88
2022-09-11T12:35:02.961Z,14.45
2022-09-11T12:40:19.175Z,12.93
2022-09-11T12:45:36.848Z,12.75
2022-09-11T12:50:39.025Z,14.15
2022-09-11T12:56:16.669Z,14.77
2022-09-11T13:01:25.118Z,14.02
2022-09-11T13:06:40.919Z,11.50
2022-09-11T13:11:45.603Z,12.68
2022-09-11T13:16:52.516Z,10.20
2022-09-11T13:21:55.144Z,9.10
2022-09-11T13:27:14.006Z,7.82
2022-09-11T13:32:17.375Z,8.55
2022-09-11T13:37:37.389Z,7.60
2022-09-11T13:42:40.395Z,6.95
2022-09-11T13:47:42.364Z,5.93
2022-09-11T13:52:45.660Z,6.68
2022-09-11T13:57:53.106Z,7.22
2022-09-11T14:02:54.881Z,6.65
2022-09-11T14:08:01.481Z,7.38
2022-09-11T14:13:24.699Z,7.22
2022-09-11T14:18:46.162Z,7.35
2022-09-11T14:23:55.109Z,6.25
2022-09-11T14:29:03.313Z,6.00
2022-09-11T14:34:11.135Z,5.95
2022-09-11T14:39:15.756Z,6.93
2022-09-11T14:44:17.960Z,7.20
2022-09-11T14:49:19.641Z,6.63
2022-09-11T14:54:22.860Z,6.47
2022-09-11T14:59:24.914Z,6.45
2022-09-11T15:04:27.445Z,6.95
2022-09-11T15:09:29.246Z,5.10
2022-09-11T15:14:55.041Z,5.47
2022-09-11T15:19:54.137Z,5.65
2022-09-11T15:24:56.639Z,6.03
2022-09-11T15:29:58.267Z,5.63
2022-09-11T15:34:59.964Z,6.28
2022-09-11T15:40:02.004Z,5.60
2022-09-11T15:45:04.244Z,5.70
2022-09-11T15:50:06.519Z,6.15
2022-09-11T15:55:09.560Z,6.65
2022-09-11T16:00:12.067Z,5.97
2022-09-11T16:05:14.541Z,6.15
2022-09-11T16:10:16.169Z,5.30
2022-09-11T16:15:18.266Z,5.43
2022-09-11T16:20:20.263Z,5.30
2022-09-11T16:25:22.067Z,5.00
2022-09-11T16:30:42.483Z,6.72
2022-09-11T16:35:45.388Z,6.45
2022-09-11T16:40:47.018Z,6.18
2022-09-11T16:45:52.672Z,6.53
2022-09-11T16:50:55.241Z,6.28
2022-09-11T16:55:56.895Z,7.03
2022-09-11T17:00:58.886Z,7.13
2022-09-11T17:06:00.541Z,6.50
2022-09-11T17:11:02.545Z,7.43
2022-09-11T17:16:06.793Z,7.55
2022-09-11T17:21:09.827Z,7.60
2022-09-11T17:26:14.064Z,6.75
2022-09-11T17:31:19.168Z,6.78
2022-09-11T17:36:21.785Z,6.88
2022-09-11T17:41:23.472Z,6.85
2022-09-11T17:46:25.213Z,7.10
2022-09-11T17:51:27.923Z,7.57
2022-09-11T17:56:33.262Z,7.20
2022-09-11T18:01:34.961Z,7.22
2022-09-11T18:06:38.494Z,6.95
2022-09-11T18:11:43.130Z,7.10
2022-09-11T18:16:47.309Z,6.93
2022-09-11T18:21:50.510Z,6.82
2022-09-11T18:26:58.570Z,6.75
2022-09-11T18:32:03.496Z,6.75
2022-09-11T18:37:05.266Z,6.88
2022-09-11T18:42:07.178Z,7.45
2022-09-11T18:47:08.784Z,7.57
2022-09-11T18:52:10.868Z,6.90
2022-09-11T18:57:12.448Z,6.55
2022-09-11T19:02:14.482Z,7.25
2022-09-11T19:07:16.140Z,6.97
2022-09-11T19:12:17.765Z,6.63
2022-09-11T19:17:19.479Z,6.75
2022-09-11T19:22:22.881Z,6.78
2022-09-11T19:27:26.236Z,7.13
2022-09-11T19:32:28.195Z,7.18
2022-09-11T19:37:30.054Z,7.88
2022-09-11T19:42:32.494Z,8.93
2022-09-11T19:47:34.148Z,10.18
2022-09-11T19:52:35.744Z,9.05
2022-09-11T19:57:37.324Z,10.23
2022-09-11T20:02:39.124Z,9.88
2022-09-11T20:07:40.703Z,10.48
2022-09-11T20:12:42.310Z,10.93
2022-09-11T20:17:44.858Z,11.98
2022-09-11T20:22:46.779Z,11.00
2022-09-11T20:27:48.820Z,11.32
2022-09-11T20:32:50.725Z,11.35
2022-09-11T20:37:55.471Z,12.13
2022-09-11T20:42:57.105Z,10.55
2022-09-11T20:48:00.493Z,12.05
2022-09-11T20:53:02.310Z,12.15
2022-09-11T20:58:05.849Z,12.60
2022-09-11T21:03:07.437Z,11.95
2022-09-11T21:08:09.050Z,11.93
2022-09-11T21:13:14.671Z,11.02
2022-09-11T21:18:16.413Z,11.40
2022-09-11T21:23:18.031Z,11.32
2022-09-11T21:28:19.723Z,12.30
2022-09-11T21:33:21.390Z,12.60
2022-09-11T21:38:24.828Z,13.77
2022-09-11T21:43:27.827Z,12.80
2022-09-11T21:48:33.641Z,14.20
2022-09-11T21:53:38.353Z,12.98
2022-09-11T21:58:39.935Z,14.75
2022-09-11T22:03:41.738Z,13.35
2022-09-11T22:08:44.557Z,13.32
2022-09-11T22:13:47.748Z,12.85
2022-09-11T22:18:52.927Z,13.55
2022-09-11T22:23:55.286Z,14.23
2022-09-11T22:29:00.216Z,13.73
2022-09-11T22:34:02.080Z,12.68
2022-09-11T22:39:05.469Z,14.23
2022-09-11T22:44:08.164Z,14.43
2022-09-11T22:49:09.995Z,15.35
2022-09-11T22:54:13.636Z,14.20
2022-09-11T22:59:15.242Z,14.52
2022-09-11T23:04:17.026Z,14.30
2022-09-11T23:09:18.651Z,14.38
2022-09-11T23:14:20.259Z,14.93
2022-09-11T23:19:22.513Z,15.40
2022-09-11T23:24:24.164Z,15.52
2022-09-11T23:29:25.844Z,14.93
2022-09-11T23:34:27.501Z,15.77
2022-09-11T23:39:29.125Z,16.23
2022-09-11T23:44:30.786Z,18.25
2022-09-11T23:49:36.198Z,17.90
2022-09-11T23:54:38.112Z,19.58
2022-09-11T23:59:39.705Z,21.08
